Weather reports worldwide

Advertisment
Nordseeboje III, Germany (10006): temperature & dewpoint: 11.01.2021 22:00:00 - 17.01.2021 22:00:00 (CET)Nordseeboje III, Germany (10006): water temperature: 11.01.2021 22:00:00 - 17.01.2021 22:00:00 (CET)Nordseeboje III, Germany (10006): reduced air pressure: 11.01.2021 22:00:00 - 17.01.2021 22:00:00 (CET)
Date & Time tt [°C] td [°C] tw [°C] ppp [hPa]
17.01.2021 22:00:00 - - - -
17.01.2021 21:00:00 7,0 4,5 7,3 1018,0
17.01.2021 20:00:00 7,2 4,7 7,2 1017,9
17.01.2021 19:00:00 7,0 4,9 7,3 1017,6
17.01.2021 18:00:00 6,0 4,5 7,3 1017,3
17.01.2021 17:00:00 6,2 5,0 7,3 1016,8
17.01.2021 16:00:00 5,5 4,9 7,3 1016,5
17.01.2021 15:00:00 4,4 3,9 7,3 1015,9
17.01.2021 14:00:00 3,7 3,2 7,3 1015,8
17.01.2021 13:00:00 3,2 2,5 7,3 1015,7
17.01.2021 12:00:00 3,0 2,4 7,2 1015,6
17.01.2021 11:00:00 2,5 1,9 7,2 1015,2
17.01.2021 10:00:00 2,4 1,7 7,2 1014,6
17.01.2021 09:00:00 2,5 1,7 7,2 1013,8
17.01.2021 08:00:00 2,7 1,7 7,2 1013,1
17.01.2021 07:00:00 2,7 1,4 7,2 1012,7
17.01.2021 06:00:00 2,5 1,2 7,2 1012,4
17.01.2021 05:00:00 2,7 1,0 7,2 1012,5
17.01.2021 04:00:00 2,5 0,7 7,2 1012,6
17.01.2021 03:00:00 2,2 0,7 7,2 1012,7
17.01.2021 02:00:00 2,5 0,9 7,2 1013,1
17.01.2021 01:00:00 2,0 0,9 7,2 1013,7
17.01.2021 00:00:00 2,2 0,4 7,2 1014,5
16.01.2021 23:00:00 2,0 0,7 7,2 1014,6
16.01.2021 22:00:00 2,0 0,5 7,1 1015,4
16.01.2021 21:00:00 2,0 0,5 7,2 1015,7
16.01.2021 20:00:00 2,0 0,2 7,2 1016,3
16.01.2021 19:00:00 3,0 -0,8 7,2 1016,1
16.01.2021 18:00:00 3,7 -1,1 7,2 1016,3
16.01.2021 17:00:00 4,0 -0,5 7,2 1016,7
16.01.2021 16:00:00 4,2 0,5 7,2 1017,5
16.01.2021 15:00:00 4,2 -0,3 7,2 1018,1
16.01.2021 14:00:00 4,4 -1,5 7,2 1019,2
16.01.2021 13:00:00 4,7 -1,8 7,2 1020,5
16.01.2021 12:00:00 4,7 -1,3 7,2 1021,3
16.01.2021 11:00:00 4,2 0,0 7,2 1022,1
16.01.2021 10:00:00 4,0 0,9 7,2 1022,8
16.01.2021 09:00:00 2,9 0,4 7,2 1023,5
16.01.2021 08:00:00 4,0 0,7 7,2 1023,9
16.01.2021 07:00:00 3,7 0,7 7,2 1024,5
16.01.2021 06:00:00 3,7 0,5 7,2 1025,0
16.01.2021 05:00:00 4,2 0,7 7,2 1025,6
16.01.2021 04:00:00 4,5 0,5 7,2 1026,2
16.01.2021 03:00:00 4,5 -1,6 7,3 1026,8
16.01.2021 02:00:00 4,0 -2,0 7,3 1027,0
16.01.2021 01:00:00 4,0 -1,8 7,3 1027,6
16.01.2021 00:00:00 3,7 -0,5 7,2 1027,9
15.01.2021 23:00:00 3,4 -0,1 7,2 1028,3
15.01.2021 22:00:00 3,2 0,2 7,2 1028,5
15.01.2021 21:00:00 3,0 -0,1 7,2 1028,5
15.01.2021 20:00:00 3,0 -0,3 7,2 1028,6
15.01.2021 19:00:00 2,7 -0,5 7,2 1028,6
15.01.2021 18:00:00 3,0 -0,3 7,2 1028,8
15.01.2021 17:00:00 2,9 -0,8 7,2 1028,8
15.01.2021 16:00:00 2,7 -0,3 7,3 1028,6
15.01.2021 15:00:00 2,9 -1,1 7,3 1028,6
15.01.2021 14:00:00 2,7 -1,8 7,3 1028,7
15.01.2021 13:00:00 2,5 -2,3 7,3 1028,9
15.01.2021 12:00:00 2,2 -2,8 7,3 1028,9
15.01.2021 11:00:00 2,0 -3,1 7,2 1029,0
15.01.2021 10:00:00 1,9 -3,8 7,2 1028,5
15.01.2021 09:00:00 1,9 -3,6 7,2 1028,0
15.01.2021 08:00:00 2,0 -3,0 7,2 1027,3
15.01.2021 07:00:00 2,0 -2,5 7,2 1027,0
15.01.2021 06:00:00 1,7 -2,8 7,2 1026,7
15.01.2021 05:00:00 2,0 -2,3 7,3 1026,6
15.01.2021 04:00:00 2,5 -1,8 7,3 1026,1
15.01.2021 03:00:00 2,5 -3,0 7,3 1025,8
15.01.2021 02:00:00 1,7 -1,5 7,4 1025,6
15.01.2021 01:00:00 2,4 -2,8 7,4 1025,5
15.01.2021 00:00:00 2,5 -2,3 7,4 1025,4
14.01.2021 23:00:00 2,2 -2,8 7,3 1025,1
14.01.2021 22:00:00 2,2 -2,1 7,3 1025,1
14.01.2021 21:00:00 1,5 -2,5 7,2 1024,7
14.01.2021 20:00:00 1,5 -2,5 7,2 1024,2
14.01.2021 19:00:00 1,4 -2,3 7,2 1024,0
14.01.2021 18:00:00 1,5 -2,0 7,3 1023,7
14.01.2021 17:00:00 1,4 -2,3 7,3 1023,8
14.01.2021 16:00:00 1,2 -2,5 7,4 1023,4
14.01.2021 15:00:00 1,0 -3,0 7,4 1022,8
14.01.2021 14:00:00 1,5 -2,5 7,4 1022,6
14.01.2021 13:00:00 1,2 -2,8 7,5 1022,5
14.01.2021 12:00:00 1,2 -2,8 7,5 1022,5
14.01.2021 11:00:00 1,7 -2,3 7,4 1022,1
14.01.2021 10:00:00 1,9 -2,3 7,4 1021,7
14.01.2021 09:00:00 2,2 -2,5 7,4 1020,8
14.01.2021 08:00:00 2,2 -2,6 7,4 1020,1
14.01.2021 07:00:00 2,7 -2,5 7,4 1019,6
14.01.2021 06:00:00 2,7 -2,6 7,4 1019,3
14.01.2021 05:00:00 3,0 -3,1 7,5 1019,1
14.01.2021 04:00:00 3,5 -2,6 7,5 1018,3
14.01.2021 03:00:00 3,5 -3,0 7,6 1017,7
14.01.2021 02:00:00 3,7 -2,3 7,6 1016,7
14.01.2021 01:00:00 4,0 -1,5 7,6 1015,9
14.01.2021 00:00:00 3,7 -1,3 7,6 1015,4
13.01.2021 23:00:00 3,7 -1,5 7,6 1014,2
13.01.2021 22:00:00 4,0 -1,5 7,6 1013,3
13.01.2021 21:00:00 4,0 -0,6 7,6 1012,3
13.01.2021 20:00:00 2,9 0,4 7,6 1011,4
13.01.2021 19:00:00 4,0 -2,6 7,6 1010,2
13.01.2021 18:00:00 3,7 -2,1 7,6 1009,6
13.01.2021 17:00:00 3,7 -1,8 7,6 1008,6
13.01.2021 16:00:00 4,2 -0,5 7,7 1007,6
13.01.2021 15:00:00 4,5 0,0 7,7 1006,5
13.01.2021 14:00:00 6,0 -1,6 7,7 1005,3
13.01.2021 13:00:00 5,4 2,0 7,7 1005,1
13.01.2021 12:00:00 6,4 3,0 7,7 1004,9
13.01.2021 11:00:00 6,9 2,7 7,7 1005,1
13.01.2021 10:00:00 6,5 2,0 7,7 1005,3
13.01.2021 09:00:00 6,5 1,2 7,7 1005,8
13.01.2021 08:00:00 6,2 2,0 7,7 1006,2
13.01.2021 07:00:00 5,7 1,2 7,7 1006,4
13.01.2021 06:00:00 6,5 1,4 7,7 1006,9
13.01.2021 05:00:00 6,5 2,4 7,7 1007,0
13.01.2021 04:00:00 6,2 1,9 7,8 1007,2
13.01.2021 03:00:00 6,2 0,7 7,8 1007,2
13.01.2021 02:00:00 6,0 2,0 7,8 1007,2
13.01.2021 01:00:00 6,4 0,4 7,7 1007,4
13.01.2021 00:00:00 6,5 0,4 7,7 1007,7
12.01.2021 23:00:00 6,5 0,0 7,7 1007,7
12.01.2021 22:00:00 6,2 0,7 7,8 1007,5
12.01.2021 21:00:00 5,9 0,5 7,8 1007,4
12.01.2021 20:00:00 5,4 0,7 7,8 1007,1
12.01.2021 19:00:00 6,2 -0,1 7,8 1006,3
12.01.2021 18:00:00 5,7 -0,3 7,9 1005,9
12.01.2021 17:00:00 5,7 -1,0 7,9 1005,3
12.01.2021 16:00:00 6,0 0,7 7,9 1004,6
12.01.2021 15:00:00 6,2 -0,5 7,8 1003,7
12.01.2021 14:00:00 6,0 -0,8 7,8 1002,9
12.01.2021 13:00:00 5,7 0,7 7,8 1002,1
12.01.2021 12:00:00 5,7 1,7 7,7 1001,3
12.01.2021 11:00:00 6,2 1,0 7,7 1001,0
12.01.2021 10:00:00 5,9 2,0 7,7 1001,3
12.01.2021 09:00:00 5,7 1,0 7,8 1000,9
12.01.2021 08:00:00 6,0 -0,8 7,9 1000,9
12.01.2021 07:00:00 5,9 -1,6 7,9 1000,7
12.01.2021 06:00:00 5,7 -1,3 7,9 1000,6
12.01.2021 05:00:00 5,9 -0,3 7,9 1000,3
12.01.2021 04:00:00 6,0 0,0 7,9 1000,2
12.01.2021 03:00:00 6,2 1,2 7,9 999,9
12.01.2021 02:00:00 6,4 3,4 7,8 999,3
12.01.2021 01:00:00 6,7 4,2 7,7 998,9
12.01.2021 00:00:00 6,5 5,9 7,7 998,3
11.01.2021 23:00:00 8,2 7,5 7,7 997,3
11.01.2021 22:00:00 8,0 7,4 7,7 997,7

tt = temperature
td = dewpoint
tw = water temperature
ppp = reduced air pressure

Next stations